ETSI

Ingolstadt Manching Airport

Manching, Germany
TAF ETSI 260415Z 2605/2614 29012KT 9999 NSW SCT030 BKN070 TEMPO 2605/2607 31015G25KT 7000 SHRA BKN020TCU BKN060 BECMG 2609/2611 28015G25KT 9999 NSW SCT035 BKN090 PROB30 2613/2614 29020G30KT 9999 -SHGS BKN030TCU
Issued Valid From Valid To
Apr-26 @ 04:15 UTC
(2 hours ago)
Apr-26 @ 05:00 UTC
(an hour ago)
Apr-26 @ 14:00 UTC
(in 8 hours)
Apr-26 @ 05:00 to Apr-26 @ 09:00
TAF ETSI 260415Z 2605/2614 29012KT 9999 NSW SCT030 BKN070
Wind Visibility Clouds Conditions
290° at 12 knots 10,000+ meters
  • Scattered at 3,000' AGL
  • Broken at 7,000' AGL
Temporary Apr-26 @ 05:00 to Apr-26 @ 07:00
TEMPO 2605/2607 31015G25KT 7000 SHRA BKN020TCU BKN060
Wind Visibility Clouds Conditions
310° at 15 knots
 Gusting to 25 knots
7,001 meters
  • Broken at 2,000' AGL
  • Broken at 6,000' AGL
  • Rain
Becoming Apr-26 @ 09:00 to Apr-26 @ 14:00
BECMG 2609/2611 28015G25KT 9999 NSW SCT035 BKN090
Wind Visibility Clouds Conditions
280° at 15 knots
 Gusting to 25 knots
10,000+ meters
  • Scattered at 3,500' AGL
  • Broken at 9,000' AGL
Probable  (Probability 30%) Apr-26 @ 13:00 to Apr-26 @ 14:00
PROB30 2613/2614 29020G30KT 9999 -SHGS BKN030TCU
Wind Visibility Clouds Conditions
290° at 20 knots
 Gusting to 30 knots
10,000+ meters
  • Broken at 3,000' AGL
  • Light Small hail
TAF ETSI 260415Z 2605/2614 29012KT 9999 NSW SCT030 BKN070 TEMPO 2605/2607 31015G25KT 7000 SHRA BKN020TCU BKN060 BECMG 2609/2611 28015G25KT 9999 NSW SCT035 BKN090 PROB30 2613/2614 29020G30KT 9999 -SHGS BKN030TCU
Issued Apr-26 @ 04:15 UTC
(2 hours ago)
Valid From Apr-26 @ 05:00 UTC
(an hour ago)
Valid To Apr-26 @ 14:00 UTC
(in 8 hours)
Apr-26 @ 05:00 - Apr-26 @ 09:00
Wind Visibility
290° at 12 knots 10,000+ meters
Clouds
  • Scattered at 3,000' AGL
  • Broken at 7,000' AGL
Conditions
Temporary Apr-26 @ 05:00 - Apr-26 @ 07:00
Wind Visibility
310° at 15 knots
 Gusting to 25 knots
7,001 meters
Clouds
  • Broken at 2,000' AGL
  • Broken at 6,000' AGL
Conditions
  • Rain
Becoming Apr-26 @ 09:00 - Apr-26 @ 14:00
Wind Visibility
280° at 15 knots
 Gusting to 25 knots
10,000+ meters
Clouds
  • Scattered at 3,500' AGL
  • Broken at 9,000' AGL
Conditions
Probability 30% Probable Apr-26 @ 13:00 - Apr-26 @ 14:00
Wind Visibility
290° at 20 knots
 Gusting to 30 knots
10,000+ meters
Clouds
  • Broken at 3,000' AGL
Conditions
  • Light Small hail